Wilson Cadiz — 8PSY — position and weather

sailwx.info

Track history (hours):
 
Tides and Currents Weather Stations Pressure Air Temp Water Temp Dewpoint Dewpoint Depression Visibility Wind Speed Wind Dir Waves Ship Positions

Wilson Cadiz

Last reported at 2017-Dec-11 13:00 UTC. Time now 2017-Dec-11 13:18 UTC.
Position N 37°50' W 008°58'.

Length 100 m; draft 3.6 m.

Type: Ship. MMSI: 314216000.

Date/timePositionNaut miles runAvg speedWind from/ knotsBaromVisibWave heightAir tempDewpointWater temp
2017-Dec-11 13:00N 37°50' W 008°58'3 6.5
2017-Dec-11 12:30N 37°49' W 009°02'1 1.0
2017-Dec-11 12:00N 37°48' W 009°02'0 0.4
2017-Dec-11 11:30N 37°48' W 009°01'0 0.7
2017-Dec-11 11:01N 37°48' W 009°01'0 0.7
2017-Dec-11 10:30N 37°48' W 009°01'1 1.3
2017-Dec-11 10:00N 37°48' W 008°60'1 1.9
2017-Dec-11 09:30N 37°47' W 008°59'1 1.3
2017-Dec-11 09:00N 37°46' W 008°59'1 1.1
2017-Dec-11 08:30N 37°46' W 008°58'1 1.5
2017-Dec-11 08:00N 37°45' W 008°58'1 1.1
2017-Dec-11 07:31N 37°45' W 008°58'1 1.5
2017-Dec-11 07:00N 37°44' W 008°57'0 0.8
2017-Dec-11 06:30N 37°44' W 008°57'1 1.4
2017-Dec-11 06:00N 37°43' W 008°57'1 1.4
2017-Dec-11 05:30N 37°43' W 008°57'1 1.7
2017-Dec-11 05:00N 37°42' W 008°57'1 1.8
2017-Dec-11 04:31N 37°41' W 008°57'1 1.6
2017-Dec-11 04:00N 37°42' W 008°57'1 2.6
2017-Dec-11 03:30N 37°43' W 008°56'1 3.0
2017-Dec-11 03:00N 37°44' W 008°55'1 2.4
2017-Dec-11 02:30N 37°45' W 008°55'1 2.5
2017-Dec-11 02:00N 37°47' W 008°55'1 2.8
2017-Dec-11 01:30N 37°48' W 008°54'1 2.0
2017-Dec-11 01:00N 37°49' W 008°53'1 2.1
2017-Dec-11 00:30N 37°50' W 008°53'1 2.2
2017-Dec-11 00:00N 37°51' W 008°52'1 2.0
2017-Dec-10 23:30N 37°52' W 008°52'1 2.0
2017-Dec-10 23:00N 37°53' W 008°51'1 1.2
2017-Dec-10 22:30N 37°52' W 008°52'4 7.7
2017-Dec-10 22:00N 37°49' W 008°54'4 8.1
2017-Dec-10 21:30N 37°45' W 008°57'5 9.1
2017-Dec-10 21:00N 37°41' W 008°60'611.3
2017-Dec-10 20:30N 37°36' W 009°02'54 8.2
2017-Dec-10 13:56N 36°44' W 008°48'2011.2
2017-Dec-10 12:10N 36°44' W 008°24'211.0
2017-Dec-10 11:57N 36°44' W 008°21'611.3
2017-Dec-10 11:28N 36°45' W 008°14'612.0
2017-Dec-10 10:57N 36°45' W 008°07'  
2017-Dec-07 08:04N 38°08' W 009°57'9 9.9
2017-Dec-07 07:10N 38°17' W 009°58'210.6
2017-Dec-07 07:00N 38°19' W 009°59'610.7
2017-Dec-07 06:29N 38°24' W 010°00'610.6
2017-Dec-07 05:54N 38°30' W 010°02'410.7
2017-Dec-07 05:30N 38°35' W 010°03'510.5
2017-Dec-07 05:00N 38°40' W 010°04'510.5
2017-Dec-07 04:30N 38°45' W 010°05'610.7
2017-Dec-07 03:58N 38°51' W 010°05'510.6
2017-Dec-07 03:30N 38°55' W 010°05'510.4
2017-Dec-07 03:01N 39°01' W 010°05'510.5
2017-Dec-07 02:30N 39°06' W 010°05'510.2
2017-Dec-07 02:00N 39°11' W 010°05'  
2017-Dec-04 10:29N 48°23' W 004°27'0 0.0
2017-Dec-04 09:59N 48°23' W 004°27'0 0.0
2017-Dec-04 09:29N 48°23' W 004°27'0 0.0
2017-Dec-04 08:59N 48°23' W 004°27'0 0.0
2017-Dec-04 08:28N 48°23' W 004°27'0 0.0
2017-Dec-04 07:59N 48°23' W 004°27'0 0.0
2017-Dec-04 07:28N 48°23' W 004°27'0 0.0
2017-Dec-04 06:58N 48°23' W 004°27'0 0.0
2017-Dec-04 06:29N 48°23' W 004°27'0 0.0
2017-Dec-04 05:59N 48°23' W 004°27'0 0.0
2017-Dec-04 05:29N 48°23' W 004°27'0 0.0
2017-Dec-04 04:58N 48°23' W 004°27'0 0.0
2017-Dec-04 04:29N 48°23' W 004°27'0 0.0
2017-Dec-04 03:59N 48°23' W 004°27'0 0.0
2017-Dec-04 03:28N 48°23' W 004°27'0 0.0
2017-Dec-04 02:59N 48°23' W 004°27'0 0.0
2017-Dec-04 02:29N 48°23' W 004°27'0 0.0
2017-Dec-04 01:59N 48°23' W 004°27'0 0.0
2017-Dec-04 01:29N 48°23' W 004°27'0 0.0
2017-Dec-04 00:58N 48°23' W 004°27'0 0.0
2017-Dec-04 00:29N 48°23' W 004°27'0 0.0
2017-Dec-03 23:59N 48°23' W 004°27'0 0.0
2017-Dec-03 23:29N 48°23' W 004°27'0 0.0
2017-Dec-03 22:58N 48°23' W 004°27'0 0.0
2017-Dec-03 22:29N 48°23' W 004°27'0 0.0
2017-Dec-03 21:59N 48°23' W 004°27'0 0.0
2017-Dec-03 21:29N 48°23' W 004°27'0 0.0
2017-Dec-03 20:59N 48°23' W 004°27'0 0.0
2017-Dec-03 20:29N 48°23' W 004°27'0 0.0
2017-Dec-03 19:59N 48°23' W 004°27'0 0.0
2017-Dec-03 19:29N 48°23' W 004°27'0 0.0
2017-Dec-03 18:58N 48°23' W 004°27'0 0.0
2017-Dec-03 18:29N 48°23' W 004°27'0 0.0
2017-Dec-03 17:59N 48°23' W 004°27'0 0.0
2017-Dec-03 17:28N 48°23' W 004°27'0 0.0
2017-Dec-03 16:59N 48°23' W 004°27'0 0.0
2017-Dec-03 16:29N 48°23' W 004°27'0 0.0
2017-Dec-03 15:58N 48°23' W 004°27'0 0.0
2017-Dec-03 15:29N 48°23' W 004°27'0 0.0
2017-Dec-03 14:59N 48°23' W 004°27'0 0.0
2017-Dec-03 14:29N 48°23' W 004°27'0 0.0
2017-Dec-03 13:59N 48°23' W 004°27'0 0.0
2017-Dec-03 13:28N 48°23' W 004°27'0 0.0
2017-Dec-03 12:59N 48°23' W 004°27'0 0.0
2017-Dec-03 12:29N 48°23' W 004°27'0 0.0
2017-Dec-03 11:59N 48°23' W 004°27'0 0.0
2017-Dec-03 11:28N 48°23' W 004°27'0 0.0
2017-Dec-03 10:58N 48°23' W 004°27'0 0.0
2017-Dec-03 10:29N 48°23' W 004°27'0 0.0
2017-Dec-03 09:58N 48°23' W 004°27'0 0.0
2017-Dec-03 09:29N 48°23' W 004°27'0 0.0
2017-Dec-03 08:59N 48°23' W 004°27'0 0.0
2017-Dec-03 08:28N 48°23' W 004°27'0 0.0
2017-Dec-03 07:59N 48°23' W 004°27'0 0.0
2017-Dec-03 07:29N 48°23' W 004°27'0 0.0
2017-Dec-03 06:59N 48°23' W 004°27'0 0.0
2017-Dec-03 06:28N 48°23' W 004°27'0 0.0
2017-Dec-03 05:59N 48°23' W 004°27'0 0.0
2017-Dec-03 05:29N 48°23' W 004°27'0 0.0
2017-Dec-03 04:58N 48°23' W 004°27'0 0.0
2017-Dec-03 04:29N 48°23' W 004°27'0 0.0
2017-Dec-03 03:59N 48°23' W 004°27'0 0.0
2017-Dec-03 03:29N 48°23' W 004°27'0 0.0
2017-Dec-03 02:59N 48°23' W 004°27'0 0.0
2017-Dec-03 02:28N 48°23' W 004°27'0 0.0
2017-Dec-03 01:58N 48°23' W 004°27'0 0.0
2017-Dec-03 01:28N 48°23' W 004°27'0 0.0
2017-Dec-03 00:59N 48°23' W 004°27'0 0.0
2017-Dec-03 00:29N 48°23' W 004°27'0 0.0
2017-Dec-02 23:59N 48°23' W 004°27'0 0.0
2017-Dec-02 23:29N 48°23' W 004°27'0 0.0
2017-Dec-02 22:59N 48°23' W 004°27'0 0.0
2017-Dec-02 22:29N 48°23' W 004°27'0 0.0
2017-Dec-02 21:58N 48°23' W 004°27'0 0.0
2017-Dec-02 21:28N 48°23' W 004°27'0 0.0
2017-Dec-02 20:59N 48°23' W 004°27'0 0.0
2017-Dec-02 20:29N 48°23' W 004°27'0 0.0
2017-Dec-02 19:59N 48°23' W 004°27'0 0.0
2017-Dec-02 19:29N 48°23' W 004°27'0 0.0
2017-Dec-02 18:59N 48°23' W 004°27'0 0.0
2017-Dec-02 18:29N 48°23' W 004°27'0 0.0
2017-Dec-02 17:59N 48°23' W 004°27'0 0.0
2017-Dec-02 17:28N 48°23' W 004°27'0 0.0
2017-Dec-02 16:59N 48°23' W 004°27'0 0.0
2017-Dec-02 16:29N 48°23' W 004°27'0 0.0
2017-Dec-02 15:58N 48°23' W 004°27'0 0.0
2017-Dec-02 15:29N 48°23' W 004°27'0 0.0
2017-Dec-02 14:59N 48°23' W 004°27'0 0.0
2017-Dec-02 14:29N 48°23' W 004°27'0 0.0
2017-Dec-02 13:58N 48°23' W 004°27'0 0.0
2017-Dec-02 13:28N 48°23' W 004°27'0 0.0
2017-Dec-02 12:59N 48°23' W 004°27'0 0.0
2017-Dec-02 12:29N 48°23' W 004°27'0 0.0
2017-Dec-02 11:59N 48°23' W 004°27'0 0.0
2017-Dec-02 11:29N 48°23' W 004°27'0 0.0
2017-Dec-02 10:59N 48°23' W 004°27'0 0.0
2017-Dec-02 10:29N 48°23' W 004°27'0 0.0
2017-Dec-02 09:58N 48°23' W 004°27'0 0.0
2017-Dec-02 09:28N 48°23' W 004°27'0 0.0
2017-Dec-02 08:59N 48°23' W 004°27'0 0.0
2017-Dec-02 08:28N 48°23' W 004°27'0 0.0
2017-Dec-02 07:59N 48°23' W 004°27'0 0.0
2017-Dec-02 07:29N 48°23' W 004°27'0 0.0
2017-Dec-02 06:59N 48°23' W 004°27'0 0.0
2017-Dec-02 06:29N 48°23' W 004°27'0 0.0
2017-Dec-02 05:59N 48°23' W 004°27'0 0.0
2017-Dec-02 05:29N 48°23' W 004°27'0 0.0
2017-Dec-02 04:58N 48°23' W 004°27'0 0.0
2017-Dec-02 04:29N 48°23' W 004°27'0 0.0
2017-Dec-02 03:59N 48°23' W 004°27'0 0.0
2017-Dec-02 03:29N 48°23' W 004°27'0 0.0
2017-Dec-02 02:58N 48°23' W 004°27'0 0.0
2017-Dec-02 02:28N 48°23' W 004°27'0 0.0
2017-Dec-02 01:59N 48°23' W 004°27'0 0.0
2017-Dec-02 01:28N 48°23' W 004°27'0 0.0
2017-Dec-02 00:59N 48°23' W 004°27'0 0.0
2017-Dec-02 00:28N 48°23' W 004°27'0 0.0
2017-Dec-01 23:59N 48°23' W 004°27'0 0.0
2017-Dec-01 23:28N 48°23' W 004°27'0 0.0
2017-Dec-01 22:59N 48°23' W 004°27'0 0.0
2017-Dec-01 22:29N 48°23' W 004°27'0 0.0
2017-Dec-01 21:59N 48°23' W 004°27'0 0.0
2017-Dec-01 21:29N 48°23' W 004°27'0 0.0
2017-Dec-01 20:58N 48°23' W 004°27'0 0.0
2017-Dec-01 20:29N 48°23' W 004°27'0 0.3
2017-Dec-01 20:01N 48°23' W 004°27'3 5.4
2017-Dec-01 19:31N 48°21' W 004°30'611.2
2017-Dec-01 19:00N 48°19' W 004°38'5 9.8
2017-Dec-01 18:31N 48°18' W 004°45'510.7
2017-Dec-01 18:01N 48°16' W 004°53'611.3
2017-Dec-01 17:30N 48°15' W 005°01'611.7
2017-Dec-01 17:01N 48°16' W 005°10'611.9
2017-Dec-01 16:30N 48°18' W 005°18'611.6
2017-Dec-01 16:00N 48°21' W 005°26'612.0
2017-Dec-01 15:28N 48°23' W 005°35'  
Track history (hours):
 
Tides and Currents Weather Stations Pressure Air Temp Water Temp Dewpoint Dewpoint Depression Visibility Wind Speed Wind Dir Waves Ship Positions

Wilson Cadiz

Last reported at 2017-Dec-11 13:00 UTC. Time now 2017-Dec-11 13:18 UTC.
Position N 37°50' W 008°58'.

Length 100 m; draft 3.6 m.

Type: Ship. MMSI: 314216000.

Date/timePositionNaut miles runAvg speedWind from/ knotsBaromVisibWave heightAir tempDewpointWater temp
2017-Dec-11 13:00N 37°50' W 008°58'3 6.5
2017-Dec-11 12:30N 37°49' W 009°02'1 1.0
2017-Dec-11 12:00N 37°48' W 009°02'0 0.4
2017-Dec-11 11:30N 37°48' W 009°01'0 0.7
2017-Dec-11 11:01N 37°48' W 009°01'0 0.7
2017-Dec-11 10:30N 37°48' W 009°01'1 1.3
2017-Dec-11 10:00N 37°48' W 008°60'1 1.9
2017-Dec-11 09:30N 37°47' W 008°59'1 1.3
2017-Dec-11 09:00N 37°46' W 008°59'1 1.1
2017-Dec-11 08:30N 37°46' W 008°58'1 1.5
2017-Dec-11 08:00N 37°45' W 008°58'1 1.1
2017-Dec-11 07:31N 37°45' W 008°58'1 1.5
2017-Dec-11 07:00N 37°44' W 008°57'0 0.8
2017-Dec-11 06:30N 37°44' W 008°57'1 1.4
2017-Dec-11 06:00N 37°43' W 008°57'1 1.4
2017-Dec-11 05:30N 37°43' W 008°57'1 1.7
2017-Dec-11 05:00N 37°42' W 008°57'1 1.8
2017-Dec-11 04:31N 37°41' W 008°57'1 1.6
2017-Dec-11 04:00N 37°42' W 008°57'1 2.6
2017-Dec-11 03:30N 37°43' W 008°56'1 3.0
2017-Dec-11 03:00N 37°44' W 008°55'1 2.4
2017-Dec-11 02:30N 37°45' W 008°55'1 2.5
2017-Dec-11 02:00N 37°47' W 008°55'1 2.8
2017-Dec-11 01:30N 37°48' W 008°54'1 2.0
2017-Dec-11 01:00N 37°49' W 008°53'1 2.1
2017-Dec-11 00:30N 37°50' W 008°53'1 2.2
2017-Dec-11 00:00N 37°51' W 008°52'1 2.0
2017-Dec-10 23:30N 37°52' W 008°52'1 2.0
2017-Dec-10 23:00N 37°53' W 008°51'1 1.2
2017-Dec-10 22:30N 37°52' W 008°52'4 7.7
2017-Dec-10 22:00N 37°49' W 008°54'4 8.1
2017-Dec-10 21:30N 37°45' W 008°57'5 9.1
2017-Dec-10 21:00N 37°41' W 008°60'611.3
2017-Dec-10 20:30N 37°36' W 009°02'54 8.2
2017-Dec-10 13:56N 36°44' W 008°48'2011.2
2017-Dec-10 12:10N 36°44' W 008°24'211.0
2017-Dec-10 11:57N 36°44' W 008°21'611.3
2017-Dec-10 11:28N 36°45' W 008°14'612.0
2017-Dec-10 10:57N 36°45' W 008°07'  
2017-Dec-07 08:04N 38°08' W 009°57'9 9.9
2017-Dec-07 07:10N 38°17' W 009°58'210.6
2017-Dec-07 07:00N 38°19' W 009°59'610.7
2017-Dec-07 06:29N 38°24' W 010°00'610.6
2017-Dec-07 05:54N 38°30' W 010°02'410.7
2017-Dec-07 05:30N 38°35' W 010°03'510.5
2017-Dec-07 05:00N 38°40' W 010°04'510.5
2017-Dec-07 04:30N 38°45' W 010°05'610.7
2017-Dec-07 03:58N 38°51' W 010°05'510.6
2017-Dec-07 03:30N 38°55' W 010°05'510.4
2017-Dec-07 03:01N 39°01' W 010°05'510.5
2017-Dec-07 02:30N 39°06' W 010°05'510.2
2017-Dec-07 02:00N 39°11' W 010°05'  
2017-Dec-04 10:29N 48°23' W 004°27'0 0.0
2017-Dec-04 09:59N 48°23' W 004°27'0 0.0
2017-Dec-04 09:29N 48°23' W 004°27'0 0.0
2017-Dec-04 08:59N 48°23' W 004°27'0 0.0
2017-Dec-04 08:28N 48°23' W 004°27'0 0.0
2017-Dec-04 07:59N 48°23' W 004°27'0 0.0
2017-Dec-04 07:28N 48°23' W 004°27'0 0.0
2017-Dec-04 06:58N 48°23' W 004°27'0 0.0
2017-Dec-04 06:29N 48°23' W 004°27'0 0.0
2017-Dec-04 05:59N 48°23' W 004°27'0 0.0
2017-Dec-04 05:29N 48°23' W 004°27'0 0.0
2017-Dec-04 04:58N 48°23' W 004°27'0 0.0
2017-Dec-04 04:29N 48°23' W 004°27'0 0.0
2017-Dec-04 03:59N 48°23' W 004°27'0 0.0
2017-Dec-04 03:28N 48°23' W 004°27'0 0.0
2017-Dec-04 02:59N 48°23' W 004°27'0 0.0
2017-Dec-04 02:29N 48°23' W 004°27'0 0.0
2017-Dec-04 01:59N 48°23' W 004°27'0 0.0
2017-Dec-04 01:29N 48°23' W 004°27'0 0.0
2017-Dec-04 00:58N 48°23' W 004°27'0 0.0
2017-Dec-04 00:29N 48°23' W 004°27'0 0.0
2017-Dec-03 23:59N 48°23' W 004°27'0 0.0
2017-Dec-03 23:29N 48°23' W 004°27'0 0.0
2017-Dec-03 22:58N 48°23' W 004°27'0 0.0
2017-Dec-03 22:29N 48°23' W 004°27'0 0.0
2017-Dec-03 21:59N 48°23' W 004°27'0 0.0
2017-Dec-03 21:29N 48°23' W 004°27'0 0.0
2017-Dec-03 20:59N 48°23' W 004°27'0 0.0
2017-Dec-03 20:29N 48°23' W 004°27'0 0.0
2017-Dec-03 19:59N 48°23' W 004°27'0 0.0
2017-Dec-03 19:29N 48°23' W 004°27'0 0.0
2017-Dec-03 18:58N 48°23' W 004°27'0 0.0
2017-Dec-03 18:29N 48°23' W 004°27'0 0.0
2017-Dec-03 17:59N 48°23' W 004°27'0 0.0
2017-Dec-03 17:28N 48°23' W 004°27'0 0.0
2017-Dec-03 16:59N 48°23' W 004°27'0 0.0
2017-Dec-03 16:29N 48°23' W 004°27'0 0.0
2017-Dec-03 15:58N 48°23' W 004°27'0 0.0
2017-Dec-03 15:29N 48°23' W 004°27'0 0.0
2017-Dec-03 14:59N 48°23' W 004°27'0 0.0
2017-Dec-03 14:29N 48°23' W 004°27'0 0.0
2017-Dec-03 13:59N 48°23' W 004°27'0 0.0
2017-Dec-03 13:28N 48°23' W 004°27'0 0.0
2017-Dec-03 12:59N 48°23' W 004°27'0 0.0
2017-Dec-03 12:29N 48°23' W 004°27'0 0.0
2017-Dec-03 11:59N 48°23' W 004°27'0 0.0
2017-Dec-03 11:28N 48°23' W 004°27'0 0.0
2017-Dec-03 10:58N 48°23' W 004°27'0 0.0
2017-Dec-03 10:29N 48°23' W 004°27'0 0.0
2017-Dec-03 09:58N 48°23' W 004°27'0 0.0
2017-Dec-03 09:29N 48°23' W 004°27'0 0.0
2017-Dec-03 08:59N 48°23' W 004°27'0 0.0
2017-Dec-03 08:28N 48°23' W 004°27'0 0.0
2017-Dec-03 07:59N 48°23' W 004°27'0 0.0
2017-Dec-03 07:29N 48°23' W 004°27'0 0.0
2017-Dec-03 06:59N 48°23' W 004°27'0 0.0
2017-Dec-03 06:28N 48°23' W 004°27'0 0.0
2017-Dec-03 05:59N 48°23' W 004°27'0 0.0
2017-Dec-03 05:29N 48°23' W 004°27'0 0.0
2017-Dec-03 04:58N 48°23' W 004°27'0 0.0
2017-Dec-03 04:29N 48°23' W 004°27'0 0.0
2017-Dec-03 03:59N 48°23' W 004°27'0 0.0
2017-Dec-03 03:29N 48°23' W 004°27'0 0.0
2017-Dec-03 02:59N 48°23' W 004°27'0 0.0
2017-Dec-03 02:28N 48°23' W 004°27'0 0.0
2017-Dec-03 01:58N 48°23' W 004°27'0 0.0
2017-Dec-03 01:28N 48°23' W 004°27'0 0.0
2017-Dec-03 00:59N 48°23' W 004°27'0 0.0
2017-Dec-03 00:29N 48°23' W 004°27'0 0.0
2017-Dec-02 23:59N 48°23' W 004°27'0 0.0
2017-Dec-02 23:29N 48°23' W 004°27'0 0.0
2017-Dec-02 22:59N 48°23' W 004°27'0 0.0
2017-Dec-02 22:29N 48°23' W 004°27'0 0.0
2017-Dec-02 21:58N 48°23' W 004°27'0 0.0
2017-Dec-02 21:28N 48°23' W 004°27'0 0.0
2017-Dec-02 20:59N 48°23' W 004°27'0 0.0
2017-Dec-02 20:29N 48°23' W 004°27'0 0.0
2017-Dec-02 19:59N 48°23' W 004°27'0 0.0
2017-Dec-02 19:29N 48°23' W 004°27'0 0.0
2017-Dec-02 18:59N 48°23' W 004°27'0 0.0
2017-Dec-02 18:29N 48°23' W 004°27'0 0.0
2017-Dec-02 17:59N 48°23' W 004°27'0 0.0
2017-Dec-02 17:28N 48°23' W 004°27'0 0.0
2017-Dec-02 16:59N 48°23' W 004°27'0 0.0
2017-Dec-02 16:29N 48°23' W 004°27'0 0.0
2017-Dec-02 15:58N 48°23' W 004°27'0 0.0
2017-Dec-02 15:29N 48°23' W 004°27'0 0.0
2017-Dec-02 14:59N 48°23' W 004°27'0 0.0
2017-Dec-02 14:29N 48°23' W 004°27'0 0.0
2017-Dec-02 13:58N 48°23' W 004°27'0 0.0
2017-Dec-02 13:28N 48°23' W 004°27'0 0.0
2017-Dec-02 12:59N 48°23' W 004°27'0 0.0
2017-Dec-02 12:29N 48°23' W 004°27'0 0.0
2017-Dec-02 11:59N 48°23' W 004°27'0 0.0
2017-Dec-02 11:29N 48°23' W 004°27'0 0.0
2017-Dec-02 10:59N 48°23' W 004°27'0 0.0
2017-Dec-02 10:29N 48°23' W 004°27'0 0.0
2017-Dec-02 09:58N 48°23' W 004°27'0 0.0
2017-Dec-02 09:28N 48°23' W 004°27'0 0.0
2017-Dec-02 08:59N 48°23' W 004°27'0 0.0
2017-Dec-02 08:28N 48°23' W 004°27'0 0.0
2017-Dec-02 07:59N 48°23' W 004°27'0 0.0
2017-Dec-02 07:29N 48°23' W 004°27'0 0.0
2017-Dec-02 06:59N 48°23' W 004°27'0 0.0
2017-Dec-02 06:29N 48°23' W 004°27'0 0.0
2017-Dec-02 05:59N 48°23' W 004°27'0 0.0
2017-Dec-02 05:29N 48°23' W 004°27'0 0.0
2017-Dec-02 04:58N 48°23' W 004°27'0 0.0
2017-Dec-02 04:29N 48°23' W 004°27'0 0.0
2017-Dec-02 03:59N 48°23' W 004°27'0 0.0
2017-Dec-02 03:29N 48°23' W 004°27'0 0.0
2017-Dec-02 02:58N 48°23' W 004°27'0 0.0
2017-Dec-02 02:28N 48°23' W 004°27'0 0.0
2017-Dec-02 01:59N 48°23' W 004°27'0 0.0
2017-Dec-02 01:28N 48°23' W 004°27'0 0.0
2017-Dec-02 00:59N 48°23' W 004°27'0 0.0
2017-Dec-02 00:28N 48°23' W 004°27'0 0.0
2017-Dec-01 23:59N 48°23' W 004°27'0 0.0
2017-Dec-01 23:28N 48°23' W 004°27'0 0.0
2017-Dec-01 22:59N 48°23' W 004°27'0 0.0
2017-Dec-01 22:29N 48°23' W 004°27'0 0.0
2017-Dec-01 21:59N 48°23' W 004°27'0 0.0
2017-Dec-01 21:29N 48°23' W 004°27'0 0.0
2017-Dec-01 20:58N 48°23' W 004°27'0 0.0
2017-Dec-01 20:29N 48°23' W 004°27'0 0.3
2017-Dec-01 20:01N 48°23' W 004°27'3 5.4
2017-Dec-01 19:31N 48°21' W 004°30'611.2
2017-Dec-01 19:00N 48°19' W 004°38'5 9.8
2017-Dec-01 18:31N 48°18' W 004°45'510.7
2017-Dec-01 18:01N 48°16' W 004°53'611.3
2017-Dec-01 17:30N 48°15' W 005°01'611.7
2017-Dec-01 17:01N 48°16' W 005°10'611.9
2017-Dec-01 16:30N 48°18' W 005°18'611.6
2017-Dec-01 16:00N 48°21' W 005°26'612.0
2017-Dec-01 15:28N 48°23' W 005°35'  

Dump ship's entire track history